createdAt,value
2019-03-08T00:02:29.324Z,8.50
2019-03-08T00:05:17.598Z,8.50
2019-03-08T00:08:05.803Z,8.50
2019-03-08T00:10:54.110Z,8.50
2019-03-08T00:13:41.951Z,8.50
2019-03-08T00:16:30.026Z,8.50
2019-03-08T00:19:17.954Z,8.50
2019-03-08T00:22:05.853Z,8.50
2019-03-08T00:24:54.236Z,8.40
2019-03-08T00:27:42.000Z,8.40
2019-03-08T00:30:30.096Z,8.30
2019-03-08T00:33:18.266Z,8.30
2019-03-08T00:36:06.073Z,8.20
2019-03-08T00:38:54.156Z,8.20
2019-03-08T00:41:42.201Z,8.10
2019-03-08T00:44:31.184Z,8.00
2019-03-08T00:47:19.378Z,8.00
2019-03-08T00:50:07.432Z,7.90
2019-03-08T00:52:55.948Z,7.70
2019-03-08T00:55:44.388Z,7.60
2019-03-08T00:58:32.321Z,7.40
2019-03-08T01:01:20.337Z,7.20
2019-03-08T01:04:08.518Z,7.00
2019-03-08T01:06:56.532Z,6.90
2019-03-08T01:09:44.586Z,6.80
2019-03-08T01:12:33.224Z,6.70
2019-03-08T01:15:21.254Z,6.70
2019-03-08T01:18:09.479Z,6.60
2019-03-08T01:20:57.794Z,6.60
2019-03-08T01:23:45.910Z,6.50
2019-03-08T01:26:34.116Z,6.40
2019-03-08T01:29:22.227Z,6.40
2019-03-08T01:32:10.548Z,6.40
2019-03-08T01:34:58.640Z,6.30
2019-03-08T01:37:47.008Z,6.30
2019-03-08T01:40:34.787Z,6.30
2019-03-08T01:43:23.136Z,6.30
2019-03-08T01:46:12.233Z,6.20
2019-03-08T01:49:00.616Z,6.30
2019-03-08T01:51:48.810Z,6.30
2019-03-08T01:54:36.866Z,6.30
2019-03-08T01:57:24.753Z,6.30
2019-03-08T02:00:12.605Z,6.40
2019-03-08T02:03:00.811Z,6.40
2019-03-08T02:05:48.677Z,6.50
2019-03-08T02:08:36.963Z,6.50
2019-03-08T02:11:25.601Z,6.50
2019-03-08T02:14:13.420Z,6.60
2019-03-08T02:17:01.740Z,6.70
2019-03-08T02:19:50.295Z,6.70
2019-03-08T02:22:38.935Z,6.70
2019-03-08T02:25:26.896Z,6.80
2019-03-08T02:28:14.781Z,6.80
2019-03-08T02:31:02.982Z,6.80
2019-03-08T02:33:50.815Z,6.90
2019-03-08T02:36:38.904Z,6.90
2019-03-08T02:39:27.075Z,6.90
2019-03-08T02:42:15.034Z,6.80
2019-03-08T02:45:03.067Z,6.80
2019-03-08T02:47:51.210Z,6.80
2019-03-08T02:50:39.249Z,6.70
2019-03-08T02:53:27.583Z,6.70
2019-03-08T02:56:15.712Z,6.70
2019-03-08T03:01:55.877Z,6.80
2019-03-08T03:07:36.094Z,6.80
2019-03-08T03:10:24.249Z,6.90
2019-03-08T03:13:12.678Z,6.90
2019-03-08T03:16:01.091Z,7.00
2019-03-08T03:18:49.809Z,7.10
2019-03-08T03:21:38.207Z,7.10
2019-03-08T03:24:26.602Z,7.20
2019-03-08T03:27:14.589Z,7.30
2019-03-08T03:30:02.500Z,7.30
2019-03-08T03:32:50.742Z,7.30
2019-03-08T03:35:38.859Z,7.40
2019-03-08T03:38:27.197Z,7.40
2019-03-08T03:41:15.207Z,7.40
2019-03-08T03:44:03.231Z,7.40
2019-03-08T03:46:51.503Z,7.50
2019-03-08T03:49:39.409Z,7.50
2019-03-08T03:52:27.746Z,7.50
2019-03-08T03:55:16.656Z,7.60
2019-03-08T03:58:05.408Z,7.60
2019-03-08T04:00:54.380Z,7.60
2019-03-08T04:03:42.386Z,7.70
2019-03-08T04:06:30.417Z,7.70
2019-03-08T04:12:24.178Z,7.60
2019-03-08T04:15:12.590Z,7.60
2019-03-08T04:18:00.826Z,7.60
2019-03-08T04:20:49.120Z,7.50
2019-03-08T04:23:37.498Z,7.50
2019-03-08T04:26:25.959Z,7.50
2019-03-08T04:29:14.229Z,7.40
2019-03-08T04:32:02.350Z,7.40
2019-03-08T04:34:50.150Z,7.40
2019-03-08T04:37:38.200Z,7.40
2019-03-08T04:43:13.441Z,7.50
2019-03-08T04:46:01.684Z,7.50
2019-03-08T04:48:49.988Z,7.50
2019-03-08T04:51:37.875Z,7.60
2019-03-08T04:54:26.230Z,7.60
2019-03-08T05:00:01.537Z,7.70
2019-03-08T05:02:49.788Z,7.80
2019-03-08T05:05:38.374Z,7.80
2019-03-08T05:08:26.644Z,7.90
2019-03-08T05:11:14.490Z,7.90
2019-03-08T05:14:03.088Z,8.00
2019-03-08T05:16:51.530Z,8.00
2019-03-08T05:19:39.391Z,8.00
2019-03-08T05:22:27.605Z,8.00
2019-03-08T05:25:15.552Z,8.00
2019-03-08T05:28:04.959Z,8.00
2019-03-08T05:30:52.747Z,8.10
2019-03-08T05:33:40.938Z,8.10
2019-03-08T05:36:29.133Z,8.10
2019-03-08T05:39:17.408Z,8.10
2019-03-08T05:42:05.516Z,8.10
2019-03-08T05:44:53.616Z,8.20
2019-03-08T05:47:41.773Z,8.20
2019-03-08T05:50:29.952Z,8.30
2019-03-08T05:53:17.829Z,8.40
2019-03-08T05:58:52.088Z,8.50
2019-03-08T06:01:40.131Z,8.60
2019-03-08T06:04:29.070Z,8.60
2019-03-08T06:07:17.000Z,8.70
2019-03-08T06:10:05.100Z,8.70
2019-03-08T06:12:52.968Z,8.60
2019-03-08T06:15:40.908Z,8.60
2019-03-08T06:18:28.861Z,8.60
2019-03-08T06:21:17.276Z,8.70
2019-03-08T06:24:05.960Z,8.60
2019-03-08T06:29:40.940Z,8.60
2019-03-08T06:32:28.962Z,8.60
2019-03-08T06:35:17.284Z,8.60
2019-03-08T06:38:05.248Z,8.60
2019-03-08T06:40:53.290Z,8.60
2019-03-08T06:43:41.406Z,8.70
2019-03-08T06:46:29.450Z,8.70
2019-03-08T06:55:08.806Z,8.80
2019-03-08T06:57:56.764Z,8.80
2019-03-08T07:00:53.277Z,8.90
2019-03-08T07:03:41.874Z,8.90
2019-03-08T07:06:29.705Z,8.90
2019-03-08T07:09:18.343Z,8.90
2019-03-08T07:12:06.892Z,8.90
2019-03-08T07:14:54.953Z,8.90
2019-03-08T07:17:42.958Z,9.00
2019-03-08T07:20:56.003Z,9.00
2019-03-08T07:23:56.206Z,9.00
2019-03-08T07:33:52.929Z,9.20
2019-03-08T07:40:21.408Z,9.40
2019-03-08T07:46:47.937Z,9.50
2019-03-08T07:56:28.482Z,9.70
2019-03-08T07:59:33.300Z,9.80
2019-03-08T08:15:39.193Z,10.00
2019-03-08T08:22:15.984Z,10.10
2019-03-08T08:25:26.271Z,10.10
2019-03-08T08:34:54.511Z,10.20
2019-03-08T08:41:12.707Z,10.30
2019-03-08T08:47:50.494Z,10.30
2019-03-08T08:50:59.691Z,10.20
2019-03-08T08:53:56.221Z,10.20
2019-03-08T08:56:59.923Z,10.10
2019-03-08T09:00:09.869Z,9.90
2019-03-08T09:06:33.641Z,9.60
2019-03-08T09:09:46.721Z,9.60
2019-03-08T09:12:50.275Z,9.70
2019-03-08T09:15:53.573Z,9.70
2019-03-08T09:22:15.119Z,9.80
2019-03-08T09:25:28.600Z,9.80
2019-03-08T09:34:56.581Z,9.90
2019-03-08T09:47:41.635Z,9.80
2019-03-08T09:50:37.324Z,9.90
2019-03-08T09:53:47.282Z,10.00
2019-03-08T10:03:34.495Z,10.10
2019-03-08T10:09:59.999Z,10.20
2019-03-08T10:16:20.232Z,10.10
2019-03-08T10:25:24.056Z,10.00
2019-03-08T10:28:37.534Z,10.00
2019-03-08T10:31:30.899Z,10.00
2019-03-08T10:34:35.225Z,10.10
2019-03-08T10:37:41.944Z,10.10
2019-03-08T10:44:11.126Z,10.20
2019-03-08T10:50:41.938Z,10.40
2019-03-08T10:53:39.489Z,10.50
2019-03-08T11:00:08.684Z,10.50
2019-03-08T11:09:54.032Z,10.60
2019-03-08T11:12:53.060Z,10.70
2019-03-08T11:29:19.963Z,11.10
2019-03-08T11:32:22.850Z,11.50
2019-03-08T11:35:20.271Z,11.80
2019-03-08T11:45:13.705Z,11.90
2019-03-08T11:51:49.270Z,12.40
2019-03-08T11:54:40.775Z,12.60
2019-03-08T11:57:46.029Z,12.90
2019-03-08T12:00:56.614Z,12.90
2019-03-08T12:07:21.755Z,12.90
2019-03-08T12:13:40.146Z,12.60
2019-03-08T12:23:16.310Z,12.40
2019-03-08T12:29:42.708Z,11.90
2019-03-08T12:32:44.182Z,11.70
2019-03-08T12:42:35.974Z,11.20
2019-03-08T12:52:19.213Z,10.90
2019-03-08T12:55:21.186Z,10.90
2019-03-08T12:58:28.720Z,10.80
2019-03-08T13:01:36.310Z,10.90
2019-03-08T13:08:04.580Z,11.00
2019-03-08T13:10:53.115Z,11.00
2019-03-08T13:13:40.884Z,11.00
2019-03-08T13:16:30.095Z,10.90
2019-03-08T13:19:17.905Z,10.90
2019-03-08T13:22:06.072Z,11.00
2019-03-08T13:24:54.631Z,11.10
2019-03-08T13:27:43.126Z,11.20
2019-03-08T13:30:31.190Z,11.20
2019-03-08T13:33:19.781Z,11.20
2019-03-08T13:36:08.290Z,11.20
2019-03-08T13:38:56.412Z,11.20
2019-03-08T13:41:44.847Z,11.30
2019-03-08T13:44:34.338Z,11.30
2019-03-08T13:47:22.532Z,11.30
2019-03-08T13:50:10.614Z,11.40
2019-03-08T13:52:58.790Z,11.40
2019-03-08T13:55:46.603Z,11.40
2019-03-08T13:58:34.790Z,11.50
2019-03-08T14:01:22.593Z,11.50
2019-03-08T14:04:11.361Z,11.60
2019-03-08T14:07:00.297Z,11.60
2019-03-08T14:12:34.127Z,11.50
2019-03-08T14:15:21.980Z,11.50
2019-03-08T14:18:10.597Z,11.40
2019-03-08T14:20:58.556Z,11.50
2019-03-08T14:23:46.394Z,11.30
2019-03-08T14:26:35.101Z,11.40
2019-03-08T14:29:23.675Z,11.40
2019-03-08T14:32:16.871Z,11.40
2019-03-08T14:35:05.043Z,11.40
2019-03-08T14:37:56.038Z,11.30
2019-03-08T14:47:47.677Z,11.20
2019-03-08T14:50:37.036Z,11.10
2019-03-08T14:53:28.494Z,11.00
2019-03-08T14:56:16.016Z,10.90
2019-03-08T14:59:04.697Z,10.90
2019-03-08T15:01:52.541Z,10.90
2019-03-08T15:04:41.827Z,11.10
2019-03-08T15:07:30.073Z,11.20
2019-03-08T15:10:19.125Z,11.30
2019-03-08T15:13:07.674Z,11.30
2019-03-08T15:15:57.965Z,11.30
2019-03-08T15:18:45.892Z,11.30
2019-03-08T15:21:37.057Z,11.20
2019-03-08T15:24:24.449Z,11.10
2019-03-08T15:27:12.244Z,11.10
2019-03-08T15:30:01.093Z,11.10
2019-03-08T15:32:49.138Z,11.10
2019-03-08T15:35:38.268Z,11.10
2019-03-08T15:38:27.194Z,11.00
2019-03-08T15:41:15.581Z,10.90
2019-03-08T15:44:03.886Z,10.90
2019-03-08T15:46:55.810Z,10.90
2019-03-08T15:49:42.224Z,10.90
2019-03-08T15:52:30.462Z,10.90
2019-03-08T15:55:18.627Z,10.80
2019-03-08T15:58:07.010Z,10.70
2019-03-08T16:00:55.755Z,10.60
2019-03-08T16:03:44.304Z,10.60
2019-03-08T16:06:32.418Z,10.50
2019-03-08T16:09:21.127Z,10.50
2019-03-08T16:12:09.610Z,10.40
2019-03-08T16:14:57.576Z,10.30
2019-03-08T16:17:45.696Z,10.20
2019-03-08T16:20:37.254Z,10.10
2019-03-08T16:23:23.928Z,10.00
2019-03-08T16:26:12.248Z,9.90
2019-03-08T16:29:00.726Z,9.90
2019-03-08T16:32:11.016Z,9.80
2019-03-08T16:34:59.702Z,9.70
2019-03-08T16:37:55.785Z,9.70
2019-03-08T16:40:56.730Z,9.60
2019-03-08T16:43:50.626Z,9.50
2019-03-08T16:47:00.726Z,9.40
2019-03-08T17:03:13.934Z,8.80
2019-03-08T17:09:52.054Z,8.60
2019-03-08T17:12:59.128Z,8.50
2019-03-08T17:16:06.400Z,8.40
2019-03-08T17:28:43.141Z,8.00
2019-03-08T17:31:44.161Z,8.00
2019-03-08T17:34:49.252Z,7.90
2019-03-08T17:47:54.759Z,7.70
2019-03-08T17:51:05.283Z,7.60
2019-03-08T17:54:12.740Z,7.60
2019-03-08T17:57:20.104Z,7.60
2019-03-08T18:00:20.437Z,7.50
2019-03-08T18:19:54.550Z,7.30
2019-03-08T18:32:17.061Z,7.10
2019-03-08T18:35:24.316Z,7.10
2019-03-08T18:48:21.779Z,6.90
2019-03-08T18:51:31.498Z,6.90
2019-03-08T19:04:35.579Z,6.70
2019-03-08T19:10:56.217Z,6.70
2019-03-08T19:13:58.867Z,6.60
2019-03-08T19:20:22.300Z,6.60
2019-03-08T19:26:53.860Z,6.50
2019-03-08T19:30:01.452Z,6.50
2019-03-08T19:32:57.162Z,6.50
2019-03-08T19:42:23.210Z,6.50
2019-03-08T19:48:58.434Z,6.50
2019-03-08T19:55:32.914Z,6.50
2019-03-08T19:58:40.366Z,6.50
2019-03-08T20:05:14.040Z,6.50
2019-03-08T20:08:16.796Z,6.50
2019-03-08T20:11:23.911Z,6.50
2019-03-08T20:14:19.303Z,6.60
2019-03-08T20:20:48.274Z,6.60
2019-03-08T20:23:49.527Z,6.50
2019-03-08T20:26:47.009Z,6.50
2019-03-08T20:36:28.672Z,6.30
2019-03-08T20:39:41.202Z,6.30
2019-03-08T20:46:08.955Z,6.20
2019-03-08T20:48:57.800Z,6.30
2019-03-08T20:51:46.423Z,6.30
2019-03-08T20:54:34.111Z,6.30
2019-03-08T20:57:22.531Z,6.40
2019-03-08T21:00:10.474Z,6.40
2019-03-08T21:02:58.440Z,6.50
2019-03-08T21:05:47.930Z,6.50
2019-03-08T21:08:35.989Z,6.60
2019-03-08T21:11:24.782Z,6.60
2019-03-08T21:14:13.243Z,6.60
2019-03-08T21:22:33.442Z,6.60
2019-03-08T21:25:21.390Z,6.50
2019-03-08T21:28:09.195Z,6.50
2019-03-08T21:30:57.649Z,6.40
2019-03-08T21:33:46.313Z,6.30
2019-03-08T21:36:34.960Z,6.20
2019-03-08T21:39:23.736Z,6.20
2019-03-08T21:42:13.280Z,6.10
2019-03-08T21:45:01.862Z,6.00
2019-03-08T21:47:49.686Z,6.00
2019-03-08T21:50:38.219Z,5.90
2019-03-08T21:53:26.630Z,5.90
2019-03-08T21:56:15.224Z,5.90
2019-03-08T21:59:03.821Z,5.90
2019-03-08T22:01:52.756Z,5.90
2019-03-08T22:04:44.335Z,5.80
2019-03-08T22:07:33.748Z,5.80
2019-03-08T22:10:41.071Z,5.80
2019-03-08T22:13:29.692Z,5.80
2019-03-08T22:16:18.206Z,5.70
2019-03-08T22:19:06.390Z,5.70
2019-03-08T22:21:54.298Z,5.70
2019-03-08T22:24:42.718Z,5.70
2019-03-08T22:27:30.511Z,5.60
2019-03-08T22:30:18.891Z,5.60
2019-03-08T22:33:07.180Z,5.60
2019-03-08T22:35:55.581Z,5.70
2019-03-08T22:38:43.597Z,5.70
2019-03-08T22:41:31.944Z,5.70
2019-03-08T22:44:19.729Z,5.70
2019-03-08T22:47:07.803Z,5.70
2019-03-08T22:49:56.292Z,5.70
2019-03-08T22:52:44.312Z,5.70
2019-03-08T22:55:32.321Z,5.70
2019-03-08T22:58:20.649Z,5.70
2019-03-08T23:01:12.983Z,5.70
2019-03-08T23:04:01.096Z,5.70
2019-03-08T23:09:35.699Z,5.80
2019-03-08T23:12:24.077Z,5.80
2019-03-08T23:15:12.319Z,5.80
2019-03-08T23:18:00.106Z,5.90
2019-03-08T23:20:48.245Z,5.90
2019-03-08T23:23:36.363Z,5.90
2019-03-08T23:26:24.565Z,6.00
2019-03-08T23:29:29.098Z,6.00
2019-03-08T23:35:33.570Z,6.00
2019-03-08T23:38:21.861Z,6.10
2019-03-08T23:41:10.038Z,6.10
2019-03-08T23:43:58.705Z,6.10
2019-03-08T23:46:46.971Z,6.20
2019-03-08T23:49:35.042Z,6.20
2019-03-08T23:52:23.160Z,6.30
2019-03-08T23:55:11.247Z,6.40
2019-03-08T23:57:59.357Z,6.50
